| time (UTC) | temp F | wind direction | speed knots | gust knots | rain 1hr in | rain 24hr in | rain mn in | humidity % | barometer mb |
| 20260509145005 | 65 | 141 | 0.0 | 4.3 | 0.00 | 0.00 | 0.00 | 53 | 1013.3 |
| 20260509144005 | 65 | 246 | 0.9 | 4.3 | 0.00 | 0.00 | 0.00 | 51 | 1013.3 |
| 20260509143004 | 64 | 130 | 0.0 | 6.1 | 0.00 | 0.00 | 0.00 | 52 | 1013.2 |
| 20260509142004 | 64 | 98 | 1.7 | 7.0 | 0.00 | 0.00 | 0.00 | 53 | 1013.2 |
| 20260509141004 | 63 | 80 | 0.9 | 7.0 | 0.00 | 0.00 | 0.00 | 55 | 1013.2 |
| 20260509140005 | 63 | 310 | 2.6 | 7.8 | 0.00 | 0.00 | 0.00 | 55 | 1013.2 |
| 20260509135005 | 62 | 312 | 3.5 | 7.8 | 0.00 | 0.00 | 0.00 | 57 | 1013.2 |
| 20260509134004 | 62 | 301 | 1.7 | 4.3 | 0.00 | 0.00 | 0.00 | 58 | 1013.1 |
| 20260509133004 | 61 | 34 | 2.6 | 6.1 | 0.00 | 0.00 | 0.00 | 59 | 1013.1 |
| 20260509132004 | 61 | 140 | 0.0 | 4.3 | 0.00 | 0.00 | 0.00 | 59 | 1013.1 |
| 20260509131005 | 60 | 12 | 0.9 | 4.3 | 0.00 | 0.00 | 0.00 | 60 | 1013.2 |
| 20260509130004 | 60 | 42 | 0.9 | 6.1 | 0.00 | 0.00 | 0.00 | 62 | 1013.2 |
| 20260509123005 | 58 | 99 | 1.7 | 6.1 | 0.00 | 0.00 | 0.00 | 64 | 1013.3 |
| 20260509122004 | 58 | 123 | 0.0 | 3.5 | 0.00 | 0.00 | 0.00 | 65 | 1013.4 |
| 20260509121005 | 57 | 128 | 0.0 | 1.7 | 0.00 | 0.00 | 0.00 | 65 | 1013.3 |
| 20260509120004 | 57 | 126 | 0.9 | 1.7 | 0.00 | 0.00 | 0.00 | 66 | 1013.3 |
| 20260509115004 | 57 | 126 | 0.0 | 1.7 | 0.00 | 0.00 | 0.00 | 66 | 1013.3 |
| 20260509114004 | 56 | 126 | 0.0 | 0.0 | 0.00 | 0.00 | 0.00 | 66 | 1013.2 |
| 20260509113004 | 56 | 130 | 0.9 | 1.7 | 0.00 | 0.00 | 0.00 | 66 | 1013.2 |
| 20260509112005 | 56 | 131 | 0.9 | 4.3 | 0.00 | 0.00 | 0.00 | 66 | 1013.1 |
| 20260509111004 | 56 | 25 | 0.9 | 2.6 | 0.00 | 0.00 | 0.00 | 66 | 1013.2 |
| 20260509110005 | 56 | 230 | 0.0 | 3.5 | 0.00 | 0.00 | 0.00 | 66 | 1013.2 |
| 20260509105004 | 56 | 93 | 0.0 | 4.3 | 0.00 | 0.00 | 0.00 | 66 | 1013.2 |
| 20260509103004 | 55 | 105 | 0.0 | 3.5 | 0.00 | 0.00 | 0.00 | 65 | 1012.9 |
| 20260509101004 | 55 | 90 | 0.9 | 1.7 | 0.00 | 0.00 | 0.00 | 65 | 1012.7 |
| 20260509095004 | 55 | 90 | 0.9 | 1.7 | 0.00 | 0.00 | 0.00 | 65 | 1012.7 |
| 20260509094004 | 55 | 90 | 0.9 | 4.3 | 0.00 | 0.00 | 0.00 | 65 | 1012.8 |
| 20260509093004 | 55 | 103 | 0.0 | 1.7 | 0.00 | 0.00 | 0.00 | 65 | 1012.8 |
| 20260509092004 | 55 | 103 | 1.7 | 3.5 | 0.00 | 0.00 | 0.00 | 64 | 1012.7 |
| 20260509091005 | 55 | 98 | 0.9 | 3.5 | 0.00 | 0.00 | 0.00 | 64 | 1012.8 |
| 20260509090005 | 55 | 98 | 0.0 | 3.5 | 0.00 | 0.00 | 0.00 | 64 | 1012.8 |
| 20260509083005 | 54 | 111 | 0.0 | 1.7 | 0.00 | 0.00 | 0.00 | 64 | 1013.2 |
| 20260509082004 | 54 | 111 | 2.6 | 3.5 | 0.00 | 0.00 | 0.00 | 64 | 1013.2 |
| 20260509081004 | 54 | 98 | 0.0 | 0.9 | 0.00 | 0.00 | 0.00 | 64 | 1013.1 |
| 20260509080004 | 53 | 90 | 0.0 | 0.9 | 0.00 | 0.00 | 0.00 | 65 | 1013.2 |
| 20260509074004 | 53 | 66 | 0.0 | 0.0 | 0.00 | 0.00 | 0.00 | 64 | 1013.4 |
| 20260509073005 | 53 | 66 | 0.0 | 0.0 | 0.00 | 0.00 | 0.00 | 63 | 1013.4 |
| 20260509072004 | 52 | 66 | 0.0 | 0.0 | 0.00 | 0.00 | 0.00 | 61 | 1013.4 |
| 20260509070004 | 53 | 66 | 0.0 | 0.0 | 0.00 | 0.00 | 0.00 | 59 | 1013.6 |
| 20260509065005 | 53 | 66 | 0.0 | 0.0 | 0.00 | 0.00 | 0.00 | 59 | 1013.6 |
| 20260509064004 | 53 | 66 | 0.0 | 0.0 | 0.00 | 0.00 | 0.00 | 58 | 1013.7 |
| 20260509063005 | 54 | 66 | 0.0 | 0.0 | 0.00 | 0.00 | 0.00 | 57 | 1013.8 |
| 20260509061004 | 54 | 66 | 0.0 | 0.0 | 0.00 | 0.00 | 0.00 | 55 | 1014.0 |
| 20260509060005 | 54 | 66 | 0.0 | 0.0 | 0.00 | 0.00 | 0.00 | 55 | 1014.1 |
| 20260509055004 | 55 | 66 | 0.0 | 0.0 | 0.00 | 0.00 | 0.00 | 54 | 1014.1 |
| 20260509054004 | 56 | 66 | 0.0 | 0.0 | 0.00 | 0.00 | 0.00 | 53 | 1014.2 |
| 20260509053004 | 56 | 66 | 0.0 | 0.9 | 0.00 | 0.00 | 0.00 | 52 | 1014.2 |
| 20260509052004 | 57 | 66 | 0.0 | 0.9 | 0.00 | 0.00 | 0.00 | 52 | 1014.3 |
| 20260509051004 | 57 | 66 | 0.0 | 0.0 | 0.00 | 0.00 | 0.00 | 51 | 1014.5 |
| 20260509050005 | 58 | 66 | 0.0 | 0.0 | 0.00 | 0.00 | 0.00 | 49 | 1014.6 |
| 20260509045004 | 58 | 66 | 0.0 | 0.0 | 0.00 | 0.00 | 0.00 | 49 | 1014.6 |
| 20260509044005 | 58 | 66 | 0.0 | 0.9 | 0.00 | 0.00 | 0.00 | 48 | 1014.6 |
| 20260509043004 | 59 | 66 | 0.0 | 3.5 | 0.00 | 0.00 | 0.00 | 48 | 1014.6 |
| 20260509042005 | 59 | 113 | 0.9 | 3.5 | 0.00 | 0.00 | 0.00 | 48 | 1014.5 |
| 20260509040005 | 60 | 121 | 0.0 | 0.0 | 0.00 | 0.00 | 0.00 | 46 | 1014.5 |
| 20260509035004 | 60 | 121 | 0.0 | 0.0 | 0.00 | 0.00 | 0.00 | 45 | 1014.6 |
| 20260509034005 | 60 | 121 | 0.0 | 0.0 | 0.00 | 0.00 | 0.00 | 45 | 1014.6 |
| 20260509033005 | 60 | 121 | 0.0 | 0.0 | 0.00 | 0.00 | 0.00 | 46 | 1014.6 |
| 20260509032004 | 60 | 138 | 0.0 | 0.0 | 0.00 | 0.00 | 0.00 | 44 | 1014.6 |
| 20260509030005 | 61 | 138 | 0.0 | 0.0 | 0.00 | 0.00 | 0.00 | 45 | 1014.5 |
| 20260509025004 | 61 | 138 | 0.0 | 0.0 | 0.00 | 0.00 | 0.00 | 45 | 1014.5 |
| 20260509024005 | 61 | 138 | 0.0 | 0.0 | 0.00 | 0.00 | 0.00 | 45 | 1014.5 |
| 20260509022004 | 62 | 138 | 0.0 | 0.0 | 0.00 | 0.00 | 0.00 | 45 | 1014.5 |
| 20260509021004 | 62 | 138 | 0.0 | 0.0 | 0.00 | 0.00 | 0.00 | 45 | 1014.6 |
| 20260509020004 | 62 | 256 | 0.0 | 0.9 | 0.00 | 0.00 | 0.00 | 44 | 1014.5 |
| 20260509015006 | 63 | 256 | 0.0 | 0.9 | 0.00 | 0.00 | 0.00 | 44 | 1014.6 |
| 20260509014004 | 63 | 256 | 0.9 | 0.9 | 0.00 | 0.00 | 0.00 | 43 | 1014.6 |
| 20260509013004 | 63 | 257 | 0.0 | 0.9 | 0.00 | 0.00 | 0.00 | 43 | 1014.5 |
| 20260509012004 | 63 | 257 | 0.0 | 1.7 | 0.00 | 0.00 | 0.00 | 41 | 1014.4 |
| 20260509011004 | 64 | 286 | 0.0 | 0.9 | 0.00 | 0.00 | 0.00 | 41 | 1014.0 |
| 20260509010004 | 64 | 286 | 0.0 | 0.9 | 0.00 | 0.00 | 0.00 | 39 | 1013.9 |
| 20260509005004 | 64 | 286 | 0.0 | 1.7 | 0.00 | 0.00 | 0.00 | 40 | 1013.7 |
| 20260509004005 | 64 | 286 | 0.9 | 3.5 | 0.00 | 0.00 | 0.00 | 39 | 1013.5 |
| 20260509003004 | 64 | 89 | 0.0 | 0.0 | 0.00 | 0.00 | 0.00 | 39 | 1013.4 |
| 20260509002004 | 65 | 88 | 0.0 | 0.0 | 0.00 | 0.00 | 0.00 | 38 | 1013.3 |
| 20260509000004 | 65 | 83 | 0.0 | 0.0 | 0.00 | 0.00 | 0.00 | 36 | 1013.1 |
| 20260508235004 | 65 | 84 | 0.0 | 0.0 | 0.00 | 0.00 | 0.00 | 35 | 1013.1 |
| 20260508234004 | 66 | 84 | 0.0 | 0.0 | 0.00 | 0.00 | 0.00 | 34 | 1013.0 |
| 20260508233005 | 66 | 334 | 0.0 | 1.7 | 0.00 | 0.00 | 0.00 | 35 | 1013.0 |
| 20260508232005 | 66 | 306 | 0.0 | 1.7 | 0.00 | 0.00 | 0.00 | 32 | 1012.9 |
| 20260508231004 | 66 | 306 | 0.9 | 1.7 | 0.00 | 0.00 | 0.00 | 32 | 1012.8 |
| 20260508230004 | 67 | 81 | 0.9 | 3.5 | 0.00 | 0.00 | 0.00 | 32 | 1012.7 |
| 20260508225004 | 67 | 53 | 0.9 | 1.7 | 0.00 | 0.00 | 0.00 | 32 | 1012.5 |
| 20260508224004 | 67 | 252 | 1.7 | 2.6 | 0.00 | 0.00 | 0.00 | 31 | 1012.6 |
| 20260508223004 | 67 | 81 | 1.7 | 5.2 | 0.00 | 0.00 | 0.00 | 30 | 1012.7 |
| 20260508222006 | 68 | 43 | 0.0 | 5.2 | 0.00 | 0.00 | 0.00 | 28 | 1012.7 |
| 20260508221004 | 68 | 261 | 1.7 | 6.1 | 0.00 | 0.00 | 0.00 | 27 | 1012.5 |
| 20260508220004 | 68 | 331 | 1.7 | 7.0 | 0.00 | 0.00 | 0.00 | 25 | 1012.5 |
| 20260508215004 | 68 | 103 | 0.0 | 6.1 | 0.00 | 0.00 | 0.00 | 25 | 1012.5 |
| 20260508214004 | 69 | 261 | 0.0 | 5.2 | 0.00 | 0.00 | 0.00 | 26 | 1012.5 |
| 20260508212005 | 70 | 302 | 0.9 | 6.1 | 0.00 | 0.00 | 0.00 | 24 | 1012.5 |
| 20260508211004 | 71 | 69 | 1.7 | 6.1 | 0.00 | 0.00 | 0.00 | 21 | 1012.5 |
| 20260508210005 | 71 | 229 | 0.0 | 11.3 | 0.00 | 0.00 | 0.00 | 22 | 1012.3 |
| 20260508205004 | 71 | 86 | 2.6 | 6.1 | 0.00 | 0.00 | 0.00 | 22 | 1012.5 |
| 20260508204004 | 72 | 58 | 2.6 | 7.0 | 0.00 | 0.00 | 0.00 | 20 | 1012.4 |
| 20260508203007 | 71 | 102 | 0.0 | 11.3 | 0.00 | 0.00 | 0.00 | 21 | 1012.5 |
| 20260508202004 | 71 | 240 | 7.8 | 7.8 | 0.00 | 0.00 | 0.00 | 21 | 1012.8 |
| 20260508201005 | 71 | 223 | 3.5 | 10.4 | 0.00 | 0.00 | 0.00 | 22 | 1012.7 |
| 20260508200004 | 71 | 223 | 3.5 | 6.1 | 0.00 | 0.00 | 0.00 | 21 | 1012.9 |
| 20260508195005 | 71 | 292 | 4.3 | 8.7 | 0.00 | 0.00 | 0.00 | 24 | 1012.9 |
| 20260508193005 | 71 | 281 | 3.5 | 8.7 | 0.00 | 0.00 | 0.00 | 22 | 1013.1 |
| 20260508191004 | 70 | 196 | 1.7 | 9.6 | 0.00 | 0.00 | 0.00 | 24 | 1013.3 |
| 20260508190004 | 69 | 321 | 3.5 | 10.4 | 0.00 | 0.00 | 0.00 | 23 | 1013.7 |
| 20260508184004 | 68 | 219 | 1.7 | 8.7 | 0.00 | 0.00 | 0.00 | 25 | 1013.7 |
| 20260508183004 | 69 | 299 | 2.6 | 7.0 | 0.00 | 0.00 | 0.00 | 22 | 1013.8 |
| 20260508182004 | 70 | 163 | 1.7 | 10.4 | 0.00 | 0.00 | 0.00 | 24 | 1013.8 |
| 20260508181004 | 70 | 115 | 1.7 | 4.3 | 0.00 | 0.00 | 0.00 | 24 | 1013.9 |
| 20260508175004 | 68 | 112 | 0.9 | 7.8 | 0.00 | 0.00 | 0.00 | 25 | 1014.2 |
| 20260508173004 | 69 | 21 | 3.5 | 7.8 | 0.00 | 0.00 | 0.00 | 25 | 1014.3 |
| 20260508172005 | 68 | 128 | 2.6 | 5.2 | 0.00 | 0.00 | 0.00 | 28 | 1014.3 |
| 20260508171004 | 68 | 327 | 2.6 | 7.8 | 0.00 | 0.00 | 0.00 | 24 | 1014.3 |
| 20260508170004 | 68 | 346 | 3.5 | 8.7 | 0.00 | 0.00 | 0.00 | 25 | 1014.4 |
| 20260508165004 | 67 | 61 | 3.5 | 10.4 | 0.00 | 0.00 | 0.00 | 25 | 1014.5 |
| 20260508164004 | 66 | 70 | 0.9 | 10.4 | 0.00 | 0.00 | 0.00 | 31 | 1014.6 |
| 20260508163005 | 66 | 286 | 1.7 | 11.3 | 0.00 | 0.00 | 0.00 | 28 | 1014.8 |
| 20260508162004 | 66 | 260 | 3.5 | 7.8 | 0.00 | 0.00 | 0.00 | 29 | 1014.8 |
| 20260508160004 | 65 | 52 | 3.5 | 10.4 | 0.00 | 0.00 | 0.00 | 26 | 1015.4 |
| 20260508155005 | 64 | 269 | 4.3 | 7.0 | 0.00 | 0.00 | 0.00 | 28 | 1015.6 |
| 20260508154004 | 64 | 59 | 3.5 | 6.1 | 0.00 | 0.00 | 0.00 | 29 | 1015.6 |
| 20260508153004 | 64 | 9 | 3.5 | 7.0 | 0.00 | 0.00 | 0.00 | 27 | 1015.7 |
| 20260508152004 | 62 | 113 | 1.7 | 5.2 | 0.00 | 0.00 | 0.00 | 30 | 1015.8 |